Time,TemperatureF,DewpointF,PressureIn,WindDirection,WindDirectionDegrees,WindSpeedMPH,WindSpeedGustMPH,Humidity,HourlyPrecipIn,Conditions,Clouds,dailyrainin,SoftwareType,DateUTC
2013-05-27 00:02:00,78.0,-99.9,30.01,SE,137,15.0,18.0,-999,-99.99,,,-99.99,,2013-05-27 05:02:00,
2013-05-27 00:12:00,78.0,-99.9,30.01,SE,140,15.0,19.0,-999,-99.99,,,-99.99,,2013-05-27 05:12:00,
2013-05-27 00:22:00,78.0,-99.9,30.02,SE,136,14.0,19.0,-999,-99.99,,,-99.99,,2013-05-27 05:22:00,
2013-05-27 00:32:00,78.0,-99.9,30.02,SE,137,13.0,19.0,-999,-99.99,,,-99.99,,2013-05-27 05:32:00,
2013-05-27 00:42:00,78.0,-99.9,30.02,SE,141,13.0,17.0,-999,-99.99,,,-99.99,,2013-05-27 05:42:00,
2013-05-27 00:52:00,78.0,-99.9,30.01,SE,141,12.0,20.0,-999,-99.99,,,-99.99,,2013-05-27 05:52:00,
2013-05-27 01:02:00,78.0,-99.9,30.01,SE,138,13.0,18.0,-999,-99.99,,,-99.99,,2013-05-27 06:02:00,
2013-05-27 01:11:00,78.0,-99.9,30.01,SE,140,12.0,19.0,-999,-99.99,,,-99.99,,2013-05-27 06:11:00,
2013-05-27 01:22:00,78.0,-99.9,30.01,SE,137,14.0,18.0,-999,-99.99,,,-99.99,,2013-05-27 06:22:00,
2013-05-27 01:32:00,78.0,-99.9,30.01,SE,136,11.0,18.0,-999,-99.99,,,-99.99,,2013-05-27 06:32:00,
2013-05-27 01:42:00,78.0,-99.9,30.01,SE,136,11.0,18.0,-999,-99.99,,,-99.99,,2013-05-27 06:42:00,
2013-05-27 01:52:00,78.0,-99.9,30.01,SSE,147,11.0,16.0,-999,-99.99,,,-99.99,,2013-05-27 06:52:00,
2013-05-27 02:02:00,78.0,-99.9,30.01,SE,142,13.0,16.0,-999,-99.99,,,-99.99,,2013-05-27 07:02:00,
2013-05-27 02:11:00,78.0,-99.9,30.01,SE,142,14.0,18.0,-999,-99.99,,,-99.99,,2013-05-27 07:11:00,
2013-05-27 02:22:00,78.0,-99.9,30.00,SE,144,14.0,17.0,-999,-99.99,,,-99.99,,2013-05-27 07:22:00,
2013-05-27 02:32:00,78.0,-99.9,30.00,SSE,148,13.0,18.0,-999,-99.99,,,-99.99,,2013-05-27 07:32:00,
2013-05-27 02:42:00,78.0,-99.9,30.00,SSE,149,14.0,18.0,-999,-99.99,,,-99.99,,2013-05-27 07:42:00,
2013-05-27 02:53:00,78.0,-99.9,29.99,SE,141,12.0,17.0,-999,-99.99,,,-99.99,,2013-05-27 07:53:00,
2013-05-27 03:02:00,78.0,-99.9,29.98,SE,146,13.0,15.0,-999,-99.99,,,-99.99,,2013-05-27 08:02:00,
2013-05-27 03:12:00,78.0,-99.9,29.98,SSE,147,11.0,15.0,-999,-99.99,,,-99.99,,2013-05-27 08:12:00,
2013-05-27 03:22:00,78.0,-99.9,29.98,SSE,149,11.0,15.0,-999,-99.99,,,-99.99,,2013-05-27 08:22:00,
2013-05-27 03:33:00,78.0,-99.9,29.97,SE,145,13.0,16.0,-999,-99.99,,,-99.99,,2013-05-27 08:33:00,
2013-05-27 03:42:00,78.0,-99.9,29.97,SE,143,11.0,15.0,-999,-99.99,,,-99.99,,2013-05-27 08:42:00,
2013-05-27 03:52:00,78.0,-99.9,29.97,SSE,150,15.0,19.0,-999,-99.99,,,-99.99,,2013-05-27 08:52:00,
2013-05-27 04:02:00,78.0,-99.9,29.97,SE,146,12.0,17.0,-999,-99.99,,,-99.99,,2013-05-27 09:02:00,
2013-05-27 04:11:00,78.0,-99.9,29.97,SE,141,12.0,17.0,-999,-99.99,,,-99.99,,2013-05-27 09:11:00,
2013-05-27 04:22:00,78.0,-99.9,29.96,SSE,148,14.0,19.0,-999,-99.99,,,-99.99,,2013-05-27 09:22:00,
2013-05-27 04:33:00,78.0,-99.9,29.96,SE,139,12.0,16.0,-999,-99.99,,,-99.99,,2013-05-27 09:33:00,
2013-05-27 04:42:00,78.0,-99.9,29.96,SE,141,12.0,16.0,-999,-99.99,,,-99.99,,2013-05-27 09:42:00,
2013-05-27 04:53:00,78.0,-99.9,29.96,SE,140,12.0,19.0,-999,-99.99,,,-99.99,,2013-05-27 09:53:00,
2013-05-27 05:03:00,78.0,-99.9,29.96,SE,141,13.0,20.0,-999,-99.99,,,-99.99,,2013-05-27 10:03:00,
2013-05-27 05:12:00,78.0,-99.9,29.96,SE,142,11.0,18.0,-999,-99.99,,,-99.99,,2013-05-27 10:12:00,
2013-05-27 05:23:00,78.0,-99.9,29.96,SE,139,11.0,15.0,-999,-99.99,,,-99.99,,2013-05-27 10:23:00,
2013-05-27 05:32:00,78.0,-99.9,29.96,SE,144,13.0,17.0,-999,-99.99,,,-99.99,,2013-05-27 10:32:00,
2013-05-27 05:42:00,78.0,-99.9,29.96,SE,139,10.0,16.0,-999,-99.99,,,-99.99,,2013-05-27 10:42:00,
2013-05-27 05:53:00,78.0,-99.9,29.96,SE,137,11.0,16.0,-999,-99.99,,,-99.99,,2013-05-27 10:53:00,
2013-05-27 06:02:00,78.0,-99.9,29.96,SSE,150,10.0,14.0,-999,-99.99,,,-99.99,,2013-05-27 11:02:00,
2013-05-27 06:12:00,78.0,-99.9,29.97,SSE,149,11.0,16.0,-999,-99.99,,,-99.99,,2013-05-27 11:12:00,
2013-05-27 06:22:00,78.0,-99.9,29.97,SE,143,11.0,15.0,-999,-99.99,,,-99.99,,2013-05-27 11:22:00,
2013-05-27 06:32:00,78.0,-99.9,29.97,SE,141,11.0,14.0,-999,-99.99,,,-99.99,,2013-05-27 11:32:00,
2013-05-27 06:42:00,78.0,-99.9,29.97,SE,137,10.0,16.0,-999,-99.99,,,-99.99,,2013-05-27 11:42:00,
2013-05-27 06:52:00,78.0,-99.9,29.96,SE,137,11.0,16.0,-999,-99.99,,,-99.99,,2013-05-27 11:52:00,
2013-05-27 07:02:00,78.0,-99.9,29.96,SE,139,11.0,16.0,-999,-99.99,,,-99.99,,2013-05-27 12:02:00,
2013-05-27 07:12:00,78.0,-99.9,29.96,SE,137,10.0,16.0,-999,-99.99,,,-99.99,,2013-05-27 12:12:00,
2013-05-27 07:22:00,78.0,-99.9,29.96,SE,136,11.0,15.0,-999,-99.99,,,-99.99,,2013-05-27 12:22:00,
2013-05-27 07:32:00,78.0,-99.9,29.97,SE,137,13.0,17.0,-999,-99.99,,,-99.99,,2013-05-27 12:32:00,
2013-05-27 07:42:00,78.0,-99.9,29.97,SE,139,10.0,14.0,-999,-99.99,,,-99.99,,2013-05-27 12:42:00,
2013-05-27 07:52:00,78.0,-99.9,29.97,SE,138,12.0,17.0,-999,-99.99,,,-99.99,,2013-05-27 12:52:00,
2013-05-27 08:02:00,79.0,-99.9,29.97,SE,139,13.0,17.0,-999,-99.99,,,-99.99,,2013-05-27 13:02:00,
2013-05-27 08:11:00,79.0,-99.9,29.97,SE,145,11.0,16.0,-999,-99.99,,,-99.99,,2013-05-27 13:11:00,
2013-05-27 08:22:00,79.0,-99.9,29.97,SE,138,15.0,19.0,-999,-99.99,,,-99.99,,2013-05-27 13:22:00,
2013-05-27 08:32:00,79.0,-99.9,29.97,SE,138,10.0,17.0,-999,-99.99,,,-99.99,,2013-05-27 13:32:00,
2013-05-27 08:42:00,79.0,-99.9,29.98,SE,135,13.0,17.0,-999,-99.99,,,-99.99,,2013-05-27 13:42:00,
2013-05-27 08:53:00,79.0,-99.9,29.97,SE,142,16.0,19.0,-999,-99.99,,,-99.99,,2013-05-27 13:53:00,
2013-05-27 09:02:00,79.0,-99.9,29.98,SE,141,14.0,18.0,-999,-99.99,,,-99.99,,2013-05-27 14:02:00,
2013-05-27 09:11:00,80.0,-99.9,29.98,SE,137,16.0,21.0,-999,-99.99,,,-99.99,,2013-05-27 14:11:00,
2013-05-27 09:22:00,80.0,-99.9,29.98,SSE,148,15.0,21.0,-999,-99.99,,,-99.99,,2013-05-27 14:22:00,
2013-05-27 09:32:00,80.0,-99.9,29.99,SE,141,13.0,20.0,-999,-99.99,,,-99.99,,2013-05-27 14:32:00,
2013-05-27 09:42:00,80.0,-99.9,29.99,SE,143,14.0,22.0,-999,-99.99,,,-99.99,,2013-05-27 14:42:00,
2013-05-27 09:52:00,80.0,-99.9,29.99,SE,139,18.0,24.0,-999,-99.99,,,-99.99,,2013-05-27 14:52:00,
2013-05-27 10:02:00,81.0,-99.9,29.99,SE,140,13.0,20.0,-999,-99.99,,,-99.99,,2013-05-27 15:02:00,
2013-05-27 10:11:00,80.0,-99.9,29.99,SSE,147,16.0,23.0,-999,-99.99,,,-99.99,,2013-05-27 15:11:00,
2013-05-27 10:22:00,80.0,-99.9,29.99,SE,138,16.0,23.0,-999,-99.99,,,-99.99,,2013-05-27 15:22:00,
2013-05-27 10:33:00,80.0,-99.9,30.00,SE,134,19.0,25.0,-999,-99.99,,,-99.99,,2013-05-27 15:33:00,
2013-05-27 10:43:00,80.0,-99.9,30.00,SE,134,19.0,25.0,-999,-99.99,,,-99.99,,2013-05-27 15:43:00,
2013-05-27 10:53:00,81.0,-99.9,29.99,SE,145,17.0,24.0,-999,-99.99,,,-99.99,,2013-05-27 15:53:00,
2013-05-27 11:03:00,80.0,-99.9,29.99,SE,136,20.0,23.0,-999,-99.99,,,-99.99,,2013-05-27 16:03:00,
2013-05-27 11:12:00,81.0,-99.9,30.00,SE,141,17.0,24.0,-999,-99.99,,,-99.99,,2013-05-27 16:12:00,
2013-05-27 11:23:00,81.0,-99.9,29.99,SE,146,18.0,23.0,-999,-99.99,,,-99.99,,2013-05-27 16:23:00,
2013-05-27 11:33:00,81.0,-99.9,29.99,SSE,147,16.0,23.0,-999,-99.99,,,-99.99,,2013-05-27 16:33:00,
2013-05-27 11:42:00,81.0,-99.9,29.99,SE,137,17.0,25.0,-999,-99.99,,,-99.99,,2013-05-27 16:42:00,
2013-05-27 11:53:00,81.0,-99.9,29.99,SE,145,17.0,26.0,-999,-99.99,,,-99.99,,2013-05-27 16:53:00,
2013-05-27 12:02:00,81.0,-99.9,29.99,SE,139,19.0,24.0,-999,-99.99,,,-99.99,,2013-05-27 17:02:00,
2013-05-27 12:12:00,82.0,-99.9,29.99,SE,137,17.0,24.0,-999,-99.99,,,-99.99,,2013-05-27 17:12:00,
2013-05-27 12:22:00,81.0,-99.9,29.99,SE,136,20.0,27.0,-999,-99.99,,,-99.99,,2013-05-27 17:22:00,
2013-05-27 12:32:00,82.0,-99.9,29.99,SE,133,17.0,25.0,-999,-99.99,,,-99.99,,2013-05-27 17:32:00,
2013-05-27 12:43:00,81.0,-99.9,29.99,SE,133,19.0,25.0,-999,-99.99,,,-99.99,,2013-05-27 17:43:00,
2013-05-27 12:52:00,82.0,-99.9,29.99,SE,136,17.0,26.0,-999,-99.99,,,-99.99,,2013-05-27 17:52:00,
2013-05-27 13:02:00,82.0,-99.9,29.99,SE,145,19.0,26.0,-999,-99.99,,,-99.99,,2013-05-27 18:02:00,
2013-05-27 13:12:00,82.0,-99.9,29.98,SE,129,20.0,26.0,-999,-99.99,,,-99.99,,2013-05-27 18:12:00,
2013-05-27 13:22:00,82.0,-99.9,29.98,SE,133,18.0,24.0,-999,-99.99,,,-99.99,,2013-05-27 18:22:00,
2013-05-27 13:32:00,82.0,-99.9,29.98,SE,138,19.0,26.0,-999,-99.99,,,-99.99,,2013-05-27 18:32:00,
2013-05-27 13:42:00,81.0,-99.9,29.98,SE,137,21.0,26.0,-999,-99.99,,,-99.99,,2013-05-27 18:42:00,
2013-05-27 13:52:00,82.0,-99.9,29.98,SE,131,22.0,27.0,-999,-99.99,,,-99.99,,2013-05-27 18:52:00,
2013-05-27 14:01:00,81.0,-99.9,29.98,SE,137,22.0,29.0,-999,-99.99,,,-99.99,,2013-05-27 19:01:00,
2013-05-27 14:11:00,81.0,-99.9,29.97,SE,135,22.0,30.0,-999,-99.99,,,-99.99,,2013-05-27 19:11:00,
2013-05-27 14:22:00,82.0,-99.9,29.97,SE,143,19.0,25.0,-999,-99.99,,,-99.99,,2013-05-27 19:22:00,
2013-05-27 14:32:00,82.0,-99.9,29.96,SE,140,19.0,26.0,-999,-99.99,,,-99.99,,2013-05-27 19:32:00,
2013-05-27 14:42:00,82.0,-99.9,29.96,SE,132,19.0,25.0,-999,-99.99,,,-99.99,,2013-05-27 19:42:00,
2013-05-27 14:52:00,82.0,-99.9,29.96,SE,135,20.0,26.0,-999,-99.99,,,-99.99,,2013-05-27 19:52:00,
2013-05-27 15:02:00,81.0,-99.9,29.95,SE,136,22.0,27.0,-999,-99.99,,,-99.99,,2013-05-27 20:02:00,
2013-05-27 15:11:00,82.0,-99.9,29.95,SE,135,18.0,29.0,-999,-99.99,,,-99.99,,2013-05-27 20:11:00,
2013-05-27 15:22:00,81.0,-99.9,29.95,SE,135,23.0,28.0,-999,-99.99,,,-99.99,,2013-05-27 20:22:00,
2013-05-27 15:32:00,81.0,-99.9,29.94,SE,135,22.0,28.0,-999,-99.99,,,-99.99,,2013-05-27 20:32:00,
2013-05-27 15:42:00,82.0,-99.9,29.94,SE,132,20.0,28.0,-999,-99.99,,,-99.99,,2013-05-27 20:42:00,
2013-05-27 15:53:00,82.0,-99.9,29.94,SE,135,18.0,26.0,-999,-99.99,,,-99.99,,2013-05-27 20:53:00,
2013-05-27 16:01:00,83.0,-99.9,29.93,SE,132,16.0,25.0,-999,-99.99,,,-99.99,,2013-05-27 21:01:00,
2013-05-27 16:12:00,82.0,-99.9,29.93,SE,130,22.0,26.0,-999,-99.99,,,-99.99,,2013-05-27 21:12:00,
2013-05-27 16:22:00,82.0,-99.9,29.93,SE,137,18.0,25.0,-999,-99.99,,,-99.99,,2013-05-27 21:22:00,
2013-05-27 16:33:00,81.0,-99.9,29.92,SE,137,21.0,26.0,-999,-99.99,,,-99.99,,2013-05-27 21:33:00,
2013-05-27 16:43:00,81.0,-99.9,29.92,SE,141,19.0,28.0,-999,-99.99,,,-99.99,,2013-05-27 21:43:00,
2013-05-27 16:53:00,82.0,-99.9,29.91,SE,135,18.0,25.0,-999,-99.99,,,-99.99,,2013-05-27 21:53:00,
2013-05-27 17:03:00,82.0,-99.9,29.91,SE,134,17.0,25.0,-999,-99.99,,,-99.99,,2013-05-27 22:03:00,
2013-05-27 17:13:00,81.0,-99.9,29.91,SE,141,21.0,27.0,-999,-99.99,,,-99.99,,2013-05-27 22:13:00,
2013-05-27 17:23:00,81.0,-99.9,29.90,SE,130,21.0,27.0,-999,-99.99,,,-99.99,,2013-05-27 22:23:00,
2013-05-27 17:33:00,81.0,-99.9,29.90,SE,137,20.0,27.0,-999,-99.99,,,-99.99,,2013-05-27 22:33:00,
2013-05-27 17:42:00,81.0,-99.9,29.90,SE,139,21.0,26.0,-999,-99.99,,,-99.99,,2013-05-27 22:42:00,
2013-05-27 17:53:00,81.0,-99.9,29.90,SE,134,19.0,25.0,-999,-99.99,,,-99.99,,2013-05-27 22:53:00,
2013-05-27 18:02:00,81.0,-99.9,29.90,SE,140,16.0,23.0,-999,-99.99,,,-99.99,,2013-05-27 23:02:00,
2013-05-27 18:12:00,81.0,-99.9,29.89,SE,134,19.0,23.0,-999,-99.99,,,-99.99,,2013-05-27 23:12:00,
2013-05-27 18:22:00,81.0,-99.9,29.89,SE,137,19.0,25.0,-999,-99.99,,,-99.99,,2013-05-27 23:22:00,
2013-05-27 18:32:00,81.0,-99.9,29.88,SE,140,17.0,21.0,-999,-99.99,,,-99.99,,2013-05-27 23:32:00,
2013-05-27 18:42:00,81.0,-99.9,29.88,SE,136,17.0,28.0,-999,-99.99,,,-99.99,,2013-05-27 23:42:00,
2013-05-27 18:52:00,80.0,-99.9,29.88,SE,139,20.0,25.0,-999,-99.99,,,-99.99,,2013-05-27 23:52:00,
2013-05-27 19:01:00,80.0,-99.9,29.88,SE,135,18.0,23.0,-999,-99.99,,,-99.99,,2013-05-28 00:01:00,
2013-05-27 19:12:00,80.0,-99.9,29.88,SE,135,17.0,23.0,-999,-99.99,,,-99.99,,2013-05-28 00:12:00,
2013-05-27 19:22:00,80.0,-99.9,29.88,SE,135,18.0,24.0,-999,-99.99,,,-99.99,,2013-05-28 00:22:00,
2013-05-27 19:32:00,80.0,-99.9,29.88,SE,132,19.0,24.0,-999,-99.99,,,-99.99,,2013-05-28 00:32:00,
2013-05-27 19:42:00,80.0,-99.9,29.88,SE,130,17.0,27.0,-999,-99.99,,,-99.99,,2013-05-28 00:42:00,
2013-05-27 19:52:00,80.0,-99.9,29.88,SE,130,17.0,26.0,-999,-99.99,,,-99.99,,2013-05-28 00:52:00,
2013-05-27 20:01:00,80.0,-99.9,29.88,SE,127,16.0,23.0,-999,-99.99,,,-99.99,,2013-05-28 01:01:00,
2013-05-27 20:11:00,80.0,-99.9,29.88,SE,130,19.0,24.0,-999,-99.99,,,-99.99,,2013-05-28 01:11:00,
2013-05-27 20:22:00,80.0,-99.9,29.88,SE,129,17.0,26.0,-999,-99.99,,,-99.99,,2013-05-28 01:22:00,
2013-05-27 20:32:00,80.0,-99.9,29.88,SE,126,17.0,26.0,-999,-99.99,,,-99.99,,2013-05-28 01:32:00,
2013-05-27 20:42:00,80.0,-99.9,29.88,SE,128,18.0,23.0,-999,-99.99,,,-99.99,,2013-05-28 01:42:00,
2013-05-27 20:52:00,80.0,-99.9,29.88,SE,130,16.0,23.0,-999,-99.99,,,-99.99,,2013-05-28 01:52:00,
2013-05-27 21:02:00,79.0,-99.9,29.89,SE,128,16.0,25.0,-999,-99.99,,,-99.99,,2013-05-28 02:02:00,
2013-05-27 21:11:00,79.0,-99.9,29.89,SE,126,19.0,23.0,-999,-99.99,,,-99.99,,2013-05-28 02:11:00,
2013-05-27 21:22:00,79.0,-99.9,29.88,ESE,123,19.0,23.0,-999,-99.99,,,-99.99,,2013-05-28 02:22:00,
2013-05-27 21:32:00,79.0,-99.9,29.89,SE,135,15.0,20.0,-999,-99.99,,,-99.99,,2013-05-28 02:32:00,
2013-05-27 21:42:00,79.0,-99.9,29.89,SE,136,15.0,24.0,-999,-99.99,,,-99.99,,2013-05-28 02:42:00,
2013-05-27 21:52:00,79.0,-99.9,29.89,SE,130,17.0,22.0,-999,-99.99,,,-99.99,,2013-05-28 02:52:00,
2013-05-27 22:01:00,79.0,-99.9,29.90,SE,134,15.0,22.0,-999,-99.99,,,-99.99,,2013-05-28 03:01:00,
2013-05-27 22:11:00,79.0,-99.9,29.90,SE,133,15.0,22.0,-999,-99.99,,,-99.99,,2013-05-28 03:11:00,
2013-05-27 22:22:00,79.0,-99.9,29.90,SE,133,15.0,21.0,-999,-99.99,,,-99.99,,2013-05-28 03:22:00,
2013-05-27 22:33:00,79.0,-99.9,29.90,SE,134,15.0,20.0,-999,-99.99,,,-99.99,,2013-05-28 03:33:00,
2013-05-27 22:43:00,79.0,-99.9,29.90,SE,131,15.0,20.0,-999,-99.99,,,-99.99,,2013-05-28 03:43:00,
2013-05-27 22:53:00,79.0,-99.9,29.91,SE,128,17.0,23.0,-999,-99.99,,,-99.99,,2013-05-28 03:53:00,
2013-05-27 23:03:00,79.0,-99.9,29.91,SE,131,19.0,24.0,-999,-99.99,,,-99.99,,2013-05-28 04:03:00,
2013-05-27 23:13:00,79.0,-99.9,29.91,ESE,123,17.0,22.0,-999,-99.99,,,-99.99,,2013-05-28 04:13:00,
2013-05-27 23:23:00,79.0,-99.9,29.91,ESE,123,16.0,22.0,-999,-99.99,,,-99.99,,2013-05-28 04:23:00,
2013-05-27 23:33:00,79.0,-99.9,29.92,SE,127,16.0,23.0,-999,-99.99,,,-99.99,,2013-05-28 04:33:00,
2013-05-27 23:43:00,79.0,-99.9,29.92,ESE,123,18.0,22.0,-999,-99.99,,,-99.99,,2013-05-28 04:43:00,
2013-05-27 23:53:00,79.0,-99.9,29.92,ESE,122,19.0,23.0,-999,-99.99,,,-99.99,,2013-05-28 04:53:00,